createdAt,value
2024-03-03T00:00:26.652Z,77.19
2024-03-03T00:02:28.542Z,77.28
2024-03-03T00:04:30.354Z,76.91
2024-03-03T00:06:33.299Z,76.58
2024-03-03T00:08:35.050Z,76.59
2024-03-03T00:10:36.900Z,75.95
2024-03-03T00:12:39.434Z,76.20
2024-03-03T00:14:41.205Z,75.92
2024-03-03T00:16:43.644Z,75.73
2024-03-03T00:18:45.471Z,74.95
2024-03-03T00:20:47.210Z,75.45
2024-03-03T00:22:49.782Z,74.91
2024-03-03T00:24:52.229Z,74.96
2024-03-03T00:26:54.115Z,74.25
2024-03-03T00:28:55.940Z,74.69
2024-03-03T00:30:57.828Z,74.88
2024-03-03T00:33:00.177Z,73.90
2024-03-03T00:35:02.094Z,73.67
2024-03-03T00:37:04.085Z,74.46
2024-03-03T00:39:06.031Z,74.27
2024-03-03T00:41:08.160Z,73.89
2024-03-03T00:43:10.005Z,74.33
2024-03-03T00:45:12.876Z,75.07
2024-03-03T00:47:14.691Z,73.89
2024-03-03T00:49:16.531Z,74.26
2024-03-03T00:51:18.501Z,74.92
2024-03-03T00:53:22.181Z,74.97
2024-03-03T00:55:24.876Z,75.34
2024-03-03T00:57:26.984Z,74.37
2024-03-03T00:59:28.966Z,74.17
2024-03-03T01:01:31.520Z,74.57
2024-03-03T01:03:33.347Z,75.59
2024-03-03T01:05:35.189Z,77.88
2024-03-03T01:07:39.602Z,79.58
2024-03-03T01:09:42.897Z,80.80
2024-03-03T01:11:45.248Z,81.20
2024-03-03T01:13:47.165Z,81.18
2024-03-03T01:15:48.984Z,81.26
2024-03-03T01:17:50.940Z,80.52
2024-03-03T01:19:52.801Z,79.78
2024-03-03T01:21:54.802Z,78.74
2024-03-03T01:23:57.558Z,77.47
2024-03-03T01:25:59.396Z,76.95
2024-03-03T01:28:01.294Z,76.30
2024-03-03T01:30:05.199Z,75.82
2024-03-03T01:32:09.596Z,75.14
2024-03-03T01:34:11.428Z,75.03
2024-03-03T01:36:14.842Z,74.22
2024-03-03T01:38:17.017Z,74.44
2024-03-03T01:40:19.016Z,73.53
2024-03-03T01:42:20.926Z,73.63
2024-03-03T01:44:22.855Z,73.35
2024-03-03T01:46:25.380Z,73.34
2024-03-03T01:48:27.313Z,73.17
2024-03-03T01:50:29.304Z,72.53
2024-03-03T01:52:31.296Z,72.41
2024-03-03T01:54:34.334Z,72.07
2024-03-03T01:56:36.660Z,72.32
2024-03-03T01:58:40.406Z,71.50
2024-03-03T02:00:42.310Z,72.28
2024-03-03T02:02:45.608Z,71.97
2024-03-03T02:04:47.871Z,71.92
2024-03-03T02:06:51.916Z,71.48
2024-03-03T02:08:53.940Z,72.05
2024-03-03T02:10:55.916Z,71.51
2024-03-03T02:12:57.914Z,72.33
2024-03-03T02:15:00.043Z,71.92
2024-03-03T02:17:02.391Z,72.30
2024-03-03T02:19:04.205Z,71.86
2024-03-03T02:21:06.091Z,72.04
2024-03-03T02:23:08.213Z,72.39
2024-03-03T02:25:10.598Z,72.26
2024-03-03T02:27:12.598Z,71.62
2024-03-03T02:29:14.900Z,71.83
2024-03-03T02:31:16.893Z,71.39
2024-03-03T02:33:19.169Z,71.44
2024-03-03T02:35:21.010Z,71.51
2024-03-03T02:37:22.893Z,71.30
2024-03-03T02:39:24.810Z,71.33
2024-03-03T02:41:27.086Z,71.18
2024-03-03T02:43:29.002Z,70.56
2024-03-03T02:45:30.957Z,71.70
2024-03-03T02:47:32.930Z,71.61
2024-03-03T02:49:35.068Z,71.08
2024-03-03T02:51:37.032Z,70.99
2024-03-03T02:53:38.938Z,72.34
2024-03-03T02:55:40.664Z,73.39
2024-03-03T02:57:43.554Z,73.88
2024-03-03T02:59:45.567Z,74.63
2024-03-03T03:01:47.389Z,75.10
2024-03-03T03:03:49.349Z,75.66
2024-03-03T03:05:51.269Z,76.37
2024-03-03T03:07:53.142Z,75.93
2024-03-03T03:09:54.956Z,76.45
2024-03-03T03:11:56.840Z,77.54
2024-03-03T03:13:58.713Z,77.92
2024-03-03T03:16:04.618Z,77.82
2024-03-03T03:18:06.952Z,76.78
2024-03-03T03:20:09.423Z,76.67
2024-03-03T03:22:11.180Z,79.18
2024-03-03T03:24:13.061Z,81.15
2024-03-03T03:26:14.905Z,81.51
2024-03-03T03:28:16.916Z,82.57
2024-03-03T03:30:18.845Z,82.32
2024-03-03T03:32:20.687Z,82.56
2024-03-03T03:34:22.488Z,83.05
2024-03-03T03:36:24.212Z,82.81
2024-03-03T03:38:26.374Z,82.45
2024-03-03T03:40:29.574Z,82.06
2024-03-03T03:42:31.619Z,81.31
2024-03-03T03:44:33.503Z,81.04
2024-03-03T03:46:35.313Z,80.18
2024-03-03T03:48:37.443Z,80.11
2024-03-03T03:50:39.293Z,79.97
2024-03-03T03:52:41.054Z,79.69
2024-03-03T03:54:42.877Z,80.03
2024-03-03T03:56:44.690Z,80.33
2024-03-03T03:58:46.638Z,79.71
2024-03-03T04:00:48.461Z,79.33
2024-03-03T04:02:50.198Z,78.58
2024-03-03T04:04:52.076Z,79.73
2024-03-03T04:06:54.327Z,80.43
2024-03-03T04:08:56.395Z,81.70
2024-03-03T04:11:00.428Z,82.27
2024-03-03T04:13:03.088Z,82.40
2024-03-03T04:15:05.560Z,81.10
2024-03-03T04:17:07.664Z,81.81
2024-03-03T04:19:09.745Z,81.51
2024-03-03T04:21:11.617Z,82.12
2024-03-03T04:23:13.394Z,81.91
2024-03-03T04:25:16.512Z,81.25
2024-03-03T04:27:18.361Z,80.55
2024-03-03T04:29:20.231Z,79.85
2024-03-03T04:31:22.448Z,79.39
2024-03-03T04:33:24.711Z,78.94
2024-03-03T04:35:26.443Z,78.43
2024-03-03T04:37:28.322Z,78.21
2024-03-03T04:39:30.137Z,78.02
2024-03-03T04:41:32.697Z,77.62
2024-03-03T04:43:34.557Z,77.30
2024-03-03T04:45:36.394Z,77.56
2024-03-03T04:47:38.235Z,77.57
2024-03-03T04:49:42.858Z,78.18
2024-03-03T04:51:45.142Z,78.76
2024-03-03T04:53:46.995Z,78.51
2024-03-03T04:55:48.796Z,78.43
2024-03-03T04:57:50.812Z,78.30
2024-03-03T04:59:52.895Z,78.07
2024-03-03T05:01:54.655Z,77.88
2024-03-03T05:03:57.694Z,78.18
2024-03-03T05:05:59.560Z,77.74
2024-03-03T05:08:01.407Z,78.26
2024-03-03T05:10:03.946Z,77.56
2024-03-03T05:12:06.992Z,77.39
2024-03-03T05:14:08.974Z,77.10
2024-03-03T05:16:11.051Z,77.62
2024-03-03T05:18:13.197Z,78.17
2024-03-03T05:20:15.065Z,78.75
2024-03-03T05:22:16.937Z,79.12
2024-03-03T05:24:18.780Z,78.83
2024-03-03T05:26:21.706Z,78.82
2024-03-03T05:28:25.227Z,78.47
2024-03-03T05:30:27.423Z,78.63
2024-03-03T05:32:29.304Z,78.93
2024-03-03T05:34:31.283Z,78.63
2024-03-03T05:36:35.104Z,78.42
2024-03-03T05:38:36.720Z,77.79
2024-03-03T05:40:38.535Z,78.09
2024-03-03T05:42:40.536Z,77.92
2024-03-03T05:44:42.486Z,77.79
2024-03-03T05:46:44.395Z,77.46
2024-03-03T05:48:46.162Z,77.77
2024-03-03T05:50:47.892Z,77.25
2024-03-03T05:52:49.874Z,76.66
2024-03-03T05:54:51.665Z,77.18
2024-03-03T05:56:53.555Z,77.25
2024-03-03T05:58:55.843Z,77.10
2024-03-03T06:00:57.707Z,77.00
2024-03-03T06:02:59.594Z,77.49
2024-03-03T06:05:01.447Z,78.48
2024-03-03T06:07:06.761Z,78.30
2024-03-03T06:09:09.989Z,77.64
2024-03-03T06:11:12.093Z,77.53
2024-03-03T06:13:14.007Z,77.55
2024-03-03T06:15:15.783Z,77.23
2024-03-03T06:17:17.615Z,76.96
2024-03-03T06:19:19.550Z,77.28
2024-03-03T06:21:21.386Z,76.82
2024-03-03T06:23:23.357Z,76.99
2024-03-03T06:25:25.195Z,77.12
2024-03-03T06:27:27.023Z,77.60
2024-03-03T06:29:28.758Z,77.57
2024-03-03T06:31:30.445Z,77.72
2024-03-03T06:33:32.334Z,77.85
2024-03-03T06:35:34.233Z,78.87
2024-03-03T06:37:36.101Z,79.73
2024-03-03T06:39:37.908Z,79.99
2024-03-03T06:41:40.024Z,80.21
2024-03-03T06:43:42.800Z,80.07
2024-03-03T06:45:44.737Z,80.19
2024-03-03T06:47:46.596Z,80.56
2024-03-03T06:49:48.467Z,80.00
2024-03-03T06:51:50.493Z,79.24
2024-03-03T06:53:53.858Z,79.47
2024-03-03T06:55:55.779Z,80.35
2024-03-03T06:57:57.869Z,80.00
2024-03-03T06:59:59.768Z,80.59
2024-03-03T07:02:01.774Z,81.65
2024-03-03T07:04:09.653Z,81.99
2024-03-03T07:06:11.484Z,81.67
2024-03-03T07:08:13.371Z,80.83
2024-03-03T07:10:15.708Z,79.89
2024-03-03T07:12:17.580Z,79.04
2024-03-03T07:14:20.470Z,79.27
2024-03-03T07:16:22.268Z,78.72
2024-03-03T07:18:24.324Z,77.69
2024-03-03T07:20:26.270Z,77.50
2024-03-03T07:22:28.088Z,76.88
2024-03-03T07:24:29.937Z,76.66
2024-03-03T07:26:32.705Z,77.10
2024-03-03T07:28:34.422Z,76.32
2024-03-03T07:30:36.127Z,76.69
2024-03-03T07:32:39.692Z,77.37
2024-03-03T07:34:44.319Z,77.09
2024-03-03T07:36:47.500Z,77.28
2024-03-03T07:38:49.424Z,76.97
2024-03-03T07:40:51.230Z,77.06
2024-03-03T07:42:53.063Z,76.09
2024-03-03T07:44:54.903Z,76.75
2024-03-03T07:46:56.635Z,76.41
2024-03-03T07:48:58.675Z,75.80
2024-03-03T07:51:03.515Z,75.88
2024-03-03T07:53:05.484Z,77.18
2024-03-03T07:55:08.098Z,77.75
2024-03-03T07:57:09.927Z,78.54
2024-03-03T07:59:11.674Z,79.68
2024-03-03T08:01:13.659Z,79.38
2024-03-03T08:03:16.059Z,79.11
2024-03-03T08:05:17.871Z,79.37
2024-03-03T08:07:20.098Z,77.50
2024-03-03T08:09:21.959Z,78.47
2024-03-03T08:11:24.365Z,78.60
2024-03-03T08:13:26.292Z,78.88
2024-03-03T08:15:28.587Z,78.79
2024-03-03T08:17:30.384Z,78.36
2024-03-03T08:19:32.236Z,79.01
2024-03-03T08:21:33.980Z,78.11
2024-03-03T08:23:35.828Z,78.00
2024-03-03T08:25:37.783Z,77.23
2024-03-03T08:27:40.397Z,76.23
2024-03-03T08:29:42.117Z,75.96
2024-03-03T08:31:46.090Z,74.41
2024-03-03T08:33:47.919Z,74.83
2024-03-03T08:35:49.898Z,74.94
2024-03-03T08:37:53.862Z,76.29
2024-03-03T08:39:55.654Z,76.78
2024-03-03T08:41:57.528Z,76.91
2024-03-03T08:43:59.380Z,76.48
2024-03-03T08:46:01.286Z,77.19
2024-03-03T08:48:03.254Z,76.21
2024-03-03T08:50:05.621Z,75.30
2024-03-03T08:52:08.860Z,75.73
2024-03-03T08:54:10.756Z,75.16
2024-03-03T08:56:12.708Z,75.12
2024-03-03T08:58:14.495Z,73.59
2024-03-03T09:00:16.667Z,73.19
2024-03-03T09:02:18.630Z,73.27
2024-03-03T09:04:20.368Z,73.17
2024-03-03T09:06:22.390Z,73.59
2024-03-03T09:08:24.190Z,72.94
2024-03-03T09:10:26.375Z,72.83
2024-03-03T09:12:28.865Z,70.88
2024-03-03T09:14:30.745Z,71.92
2024-03-03T09:16:32.646Z,71.30
2024-03-03T09:18:34.546Z,71.11
2024-03-03T09:20:36.396Z,71.44
2024-03-03T09:22:38.509Z,71.42
2024-03-03T09:24:44.618Z,71.17
2024-03-03T09:26:50.297Z,70.56
2024-03-03T09:28:52.089Z,70.21
2024-03-03T09:30:54.239Z,69.22
2024-03-03T09:32:56.081Z,69.18
2024-03-03T09:34:57.925Z,68.70
2024-03-03T09:36:59.975Z,68.83
2024-03-03T09:39:02.459Z,67.91
2024-03-03T09:41:04.535Z,68.27
2024-03-03T09:43:09.658Z,67.71
2024-03-03T09:45:13.722Z,67.77
2024-03-03T09:47:16.816Z,67.42
2024-03-03T09:49:20.457Z,67.09
2024-03-03T09:51:25.469Z,66.68
2024-03-03T09:53:28.642Z,66.36
2024-03-03T09:55:31.625Z,65.84
2024-03-03T09:57:34.374Z,67.34
2024-03-03T09:59:36.476Z,68.09
2024-03-03T10:01:44.299Z,68.73
2024-03-03T10:03:46.292Z,68.65
2024-03-03T10:05:49.309Z,68.56
2024-03-03T10:07:54.620Z,67.56
2024-03-03T10:10:04.525Z,67.89
2024-03-03T10:12:07.415Z,68.15
2024-03-03T10:14:13.946Z,69.00
2024-03-03T10:16:16.507Z,68.44
2024-03-03T10:18:21.546Z,67.53
2024-03-03T10:20:23.793Z,67.34
2024-03-03T10:22:25.768Z,65.71
2024-03-03T10:24:28.730Z,64.63
2024-03-03T10:26:36.867Z,64.88
2024-03-03T10:28:38.791Z,66.91
2024-03-03T10:30:40.622Z,67.65
2024-03-03T10:32:43.610Z,68.41
2024-03-03T10:34:58.319Z,67.20
2024-03-03T10:37:04.483Z,67.27
2024-03-03T10:39:09.432Z,66.03
2024-03-03T10:41:11.337Z,65.79
2024-03-03T10:43:13.228Z,65.82
2024-03-03T10:45:15.486Z,66.23
2024-03-03T10:47:19.902Z,66.77
2024-03-03T10:49:26.559Z,65.71
2024-03-03T10:51:28.775Z,66.25
2024-03-03T10:53:32.720Z,65.65
2024-03-03T10:55:35.138Z,64.37
2024-03-03T10:57:37.347Z,63.44
2024-03-03T10:59:42.602Z,62.98
2024-03-03T11:01:45.248Z,61.48
2024-03-03T11:03:48.688Z,61.07
2024-03-03T11:05:53.907Z,62.18
2024-03-03T11:07:55.906Z,62.26
2024-03-03T11:09:58.394Z,62.44
2024-03-03T11:12:02.076Z,61.13
2024-03-03T11:14:13.255Z,61.23
2024-03-03T11:16:15.244Z,60.83
2024-03-03T11:18:20.082Z,59.53
2024-03-03T11:20:23.878Z,59.00
2024-03-03T11:22:25.874Z,59.27
2024-03-03T11:24:33.360Z,60.04
2024-03-03T11:26:53.721Z,59.31
2024-03-03T11:29:00.727Z,59.61
2024-03-03T11:31:03.761Z,59.10
2024-03-03T11:33:05.983Z,57.64
2024-03-03T11:35:08.469Z,57.06
2024-03-03T11:37:13.050Z,57.08
2024-03-03T11:39:18.017Z,58.62
2024-03-03T11:41:21.777Z,58.19
2024-03-03T11:43:27.237Z,57.75
2024-03-03T11:45:45.953Z,58.22
2024-03-03T11:47:48.653Z,57.45
2024-03-03T11:49:51.090Z,57.02
2024-03-03T11:51:53.262Z,56.05
2024-03-03T11:54:05.172Z,57.94
2024-03-03T11:56:18.954Z,58.87
2024-03-03T11:58:21.326Z,58.88
2024-03-03T12:00:28.780Z,58.75
2024-03-03T12:02:31.143Z,57.96
2024-03-03T12:04:33.052Z,57.43
2024-03-03T12:06:35.642Z,56.66
2024-03-03T12:08:37.685Z,56.29
2024-03-03T12:10:42.356Z,56.24
2024-03-03T12:12:57.842Z,56.59
2024-03-03T12:15:00.814Z,56.43
2024-03-03T12:17:03.321Z,55.87
2024-03-03T12:19:05.688Z,55.37
2024-03-03T12:21:07.559Z,54.70
2024-03-03T12:23:09.875Z,54.20
2024-03-03T12:25:12.342Z,54.56
2024-03-03T12:27:14.210Z,54.46
2024-03-03T12:29:17.022Z,53.53
2024-03-03T12:31:19.239Z,54.00
2024-03-03T12:33:21.266Z,54.11
2024-03-03T12:35:23.867Z,54.30
2024-03-03T12:37:26.493Z,54.62
2024-03-03T12:39:28.562Z,54.50
2024-03-03T12:41:31.198Z,54.21
2024-03-03T12:43:33.364Z,53.88
2024-03-03T12:45:35.323Z,52.92
2024-03-03T12:47:37.150Z,52.24
2024-03-03T12:49:39.579Z,52.45
2024-03-03T12:51:42.775Z,52.18
2024-03-03T12:53:45.236Z,52.21
2024-03-03T12:55:47.164Z,51.38
2024-03-03T12:57:48.967Z,51.57
2024-03-03T12:59:50.973Z,51.28
2024-03-03T13:01:53.337Z,51.07
2024-03-03T13:03:55.683Z,50.99
2024-03-03T13:05:57.580Z,51.48
2024-03-03T13:08:00.258Z,51.61
2024-03-03T13:10:14.191Z,52.18
2024-03-03T13:12:19.784Z,52.04
2024-03-03T13:14:23.965Z,52.60
2024-03-03T13:16:27.260Z,52.79
2024-03-03T13:18:29.152Z,53.19
2024-03-03T13:20:32.080Z,53.32
2024-03-03T13:22:34.011Z,52.99
2024-03-03T13:24:37.535Z,53.58
2024-03-03T13:26:42.110Z,53.41
2024-03-03T13:28:46.600Z,53.38
2024-03-03T13:31:01.433Z,53.23
2024-03-03T13:33:03.324Z,53.42
2024-03-03T13:35:06.052Z,53.28
2024-03-03T13:37:08.942Z,52.99
2024-03-03T13:39:12.063Z,53.46
2024-03-03T13:41:14.031Z,53.73
2024-03-03T13:43:15.885Z,54.47
2024-03-03T13:45:17.860Z,54.54
2024-03-03T13:47:19.682Z,55.30
2024-03-03T13:49:22.064Z,55.23
2024-03-03T13:51:23.966Z,55.19
2024-03-03T13:53:25.645Z,55.56
2024-03-03T13:55:28.003Z,55.17
2024-03-03T13:57:29.982Z,55.09
2024-03-03T13:59:33.058Z,55.33
2024-03-03T14:01:34.945Z,55.68
2024-03-03T14:03:36.726Z,56.17
2024-03-03T14:05:39.333Z,56.09
2024-03-03T14:07:44.472Z,56.37
2024-03-03T14:09:47.385Z,55.98
2024-03-03T14:11:49.298Z,55.88
2024-03-03T14:13:51.203Z,55.41
2024-03-03T14:15:53.590Z,55.21
2024-03-03T14:17:55.336Z,55.03
2024-03-03T14:19:57.598Z,54.69
2024-03-03T14:21:59.333Z,54.42
2024-03-03T14:24:01.691Z,54.13
2024-03-03T14:26:03.639Z,54.05
2024-03-03T14:28:12.442Z,54.05
2024-03-03T14:30:15.992Z,53.36
2024-03-03T14:32:17.800Z,53.22
2024-03-03T14:34:19.704Z,53.10
2024-03-03T14:36:24.433Z,51.73
2024-03-03T14:38:26.156Z,50.51
2024-03-03T14:40:28.268Z,48.92
2024-03-03T14:42:31.742Z,48.30
2024-03-03T14:44:33.486Z,49.59
2024-03-03T14:46:35.691Z,49.19
2024-03-03T14:48:37.600Z,48.47
2024-03-03T14:50:39.459Z,47.56
2024-03-03T14:52:41.229Z,46.76
2024-03-03T14:54:43.527Z,46.62
2024-03-03T14:56:45.455Z,47.88
2024-03-03T14:58:47.507Z,49.22
2024-03-03T15:00:50.168Z,49.75
2024-03-03T15:02:52.946Z,50.05
2024-03-03T15:04:54.786Z,50.18
2024-03-03T15:06:58.075Z,49.88
2024-03-03T15:08:59.837Z,50.47
2024-03-03T15:11:02.269Z,50.60
2024-03-03T15:13:06.818Z,50.72
2024-03-03T15:15:09.217Z,50.85
2024-03-03T15:17:21.158Z,51.21
2024-03-03T15:19:24.145Z,51.75
2024-03-03T15:21:26.145Z,52.09
2024-03-03T15:23:27.946Z,52.35
2024-03-03T15:25:29.796Z,52.53
2024-03-03T15:27:31.793Z,52.97
2024-03-03T15:29:33.571Z,53.18
2024-03-03T15:31:35.509Z,53.34
2024-03-03T15:33:37.625Z,53.68
2024-03-03T15:35:39.432Z,53.68
2024-03-03T15:37:41.501Z,53.95
2024-03-03T15:39:43.319Z,54.04
2024-03-03T15:41:45.156Z,53.79
2024-03-03T15:43:47.237Z,53.62
2024-03-03T15:45:49.451Z,52.75
2024-03-03T15:47:51.392Z,52.03
2024-03-03T15:49:53.351Z,51.54
2024-03-03T15:51:55.293Z,51.39
2024-03-03T15:53:57.037Z,51.85
2024-03-03T15:56:00.011Z,51.73
2024-03-03T15:58:02.393Z,51.80
2024-03-03T16:00:07.797Z,52.48
2024-03-03T16:02:09.664Z,52.47
2024-03-03T16:04:11.522Z,53.23
2024-03-03T16:06:13.361Z,53.11
2024-03-03T16:08:17.011Z,53.52
2024-03-03T16:10:18.902Z,53.48
2024-03-03T16:12:20.869Z,53.47
2024-03-03T16:14:22.958Z,54.11
2024-03-03T16:16:30.262Z,54.29
2024-03-03T16:18:32.760Z,54.46
2024-03-03T16:20:34.646Z,54.82
2024-03-03T16:22:39.844Z,54.82
2024-03-03T16:24:41.769Z,55.00
2024-03-03T16:26:44.470Z,54.69
2024-03-03T16:28:46.301Z,54.88
2024-03-03T16:30:48.174Z,55.03
2024-03-03T16:32:50.106Z,55.38
2024-03-03T16:34:51.886Z,55.53
2024-03-03T16:36:54.254Z,55.66
2024-03-03T16:38:56.735Z,55.31
2024-03-03T16:40:59.033Z,55.56
2024-03-03T16:43:04.284Z,55.40
2024-03-03T16:45:08.719Z,55.93
2024-03-03T16:47:11.129Z,55.96
2024-03-03T16:49:12.968Z,56.38
2024-03-03T16:51:15.016Z,56.13
2024-03-03T16:53:16.726Z,56.02
2024-03-03T16:55:20.717Z,56.58
2024-03-03T16:57:22.596Z,56.42
2024-03-03T16:59:24.372Z,56.60
2024-03-03T17:01:26.478Z,56.11
2024-03-03T17:03:31.633Z,56.59
2024-03-03T17:05:34.503Z,56.32
2024-03-03T17:07:36.820Z,56.16
2024-03-03T17:09:38.617Z,56.37
2024-03-03T17:11:41.296Z,56.61
2024-03-03T17:13:43.267Z,56.42
2024-03-03T17:15:45.175Z,56.60
2024-03-03T17:17:47.055Z,56.85
2024-03-03T17:19:49.478Z,56.32
2024-03-03T17:21:51.389Z,56.58
2024-03-03T17:23:53.158Z,56.71
2024-03-03T17:25:55.531Z,57.04
2024-03-03T17:27:57.414Z,57.00
2024-03-03T17:29:59.293Z,57.41
2024-03-03T17:32:01.207Z,57.62
2024-03-03T17:34:03.163Z,57.77
2024-03-03T17:36:06.390Z,58.20
2024-03-03T17:38:08.876Z,58.14
2024-03-03T17:40:10.942Z,58.24
2024-03-03T17:42:12.778Z,57.95
2024-03-03T17:44:14.740Z,58.06
2024-03-03T17:46:16.652Z,57.78
2024-03-03T17:48:19.646Z,57.94
2024-03-03T17:50:21.406Z,58.00
2024-03-03T17:52:23.333Z,57.69
2024-03-03T17:54:25.374Z,57.74
2024-03-03T17:56:27.205Z,57.44
2024-03-03T17:58:29.970Z,57.58
2024-03-03T18:00:31.867Z,57.74
2024-03-03T18:02:33.609Z,57.89
2024-03-03T18:04:35.651Z,58.18
2024-03-03T18:06:37.681Z,58.46
2024-03-03T18:08:39.497Z,58.52
2024-03-03T18:10:41.517Z,58.32
2024-03-03T18:12:43.280Z,58.22
2024-03-03T18:14:45.105Z,57.53
2024-03-03T18:16:46.934Z,57.96
2024-03-03T18:18:48.826Z,58.64
2024-03-03T18:20:50.783Z,59.20
2024-03-03T18:22:52.574Z,59.53
2024-03-03T18:24:54.673Z,60.03
2024-03-03T18:26:56.462Z,60.93
2024-03-03T18:28:58.359Z,61.17
2024-03-03T18:31:00.807Z,60.70
2024-03-03T18:33:04.651Z,60.63
2024-03-03T18:35:08.611Z,60.43
2024-03-03T18:37:11.899Z,60.38
2024-03-03T18:39:13.704Z,60.62
2024-03-03T18:41:18.047Z,60.61
2024-03-03T18:43:20.004Z,60.63
2024-03-03T18:45:22.417Z,60.63
2024-03-03T18:47:24.329Z,60.54
2024-03-03T18:49:26.975Z,60.55
2024-03-03T18:51:29.878Z,60.49
2024-03-03T18:53:35.476Z,60.62
2024-03-03T18:55:37.452Z,60.66
2024-03-03T18:57:39.418Z,60.73
2024-03-03T18:59:41.588Z,61.38
2024-03-03T19:01:44.103Z,61.72
2024-03-03T19:03:46.044Z,61.96
2024-03-03T19:05:47.942Z,62.04
2024-03-03T19:07:50.012Z,62.11
2024-03-03T19:09:51.922Z,62.66
2024-03-03T19:11:54.734Z,63.29
2024-03-03T19:13:57.563Z,63.29
2024-03-03T19:15:59.473Z,63.65
2024-03-03T19:18:01.642Z,64.01
2024-03-03T19:20:04.906Z,64.54
2024-03-03T19:22:06.867Z,64.78
2024-03-03T19:24:09.396Z,66.68
2024-03-03T19:26:11.375Z,66.76
2024-03-03T19:28:13.288Z,67.69
2024-03-03T19:30:16.173Z,67.68
2024-03-03T19:32:17.976Z,67.33
2024-03-03T19:34:20.064Z,66.86
2024-03-03T19:36:22.011Z,66.79
2024-03-03T19:38:24.876Z,66.82
2024-03-03T19:40:26.989Z,66.54
2024-03-03T19:42:29.048Z,66.74
2024-03-03T19:44:31.033Z,66.48
2024-03-03T19:46:33.181Z,66.14
2024-03-03T19:48:35.262Z,66.23
2024-03-03T19:50:37.299Z,66.25
2024-03-03T19:52:39.245Z,66.16
2024-03-03T19:54:41.091Z,66.05
2024-03-03T19:56:42.871Z,66.21
2024-03-03T19:58:44.628Z,66.12
2024-03-03T20:00:46.547Z,65.90
2024-03-03T20:02:49.381Z,65.92
2024-03-03T20:04:51.247Z,65.84
2024-03-03T20:06:53.273Z,65.84
2024-03-03T20:08:55.081Z,66.04
2024-03-03T20:11:00.183Z,65.54
2024-03-03T20:13:05.427Z,66.01
2024-03-03T20:15:09.551Z,66.58
2024-03-03T20:17:15.056Z,66.36
2024-03-03T20:19:17.148Z,66.96
2024-03-03T20:21:19.096Z,66.67
2024-03-03T20:23:24.371Z,67.46
2024-03-03T20:25:26.330Z,67.58
2024-03-03T20:27:28.193Z,67.66
2024-03-03T20:29:30.073Z,67.64
2024-03-03T20:31:32.571Z,67.88
2024-03-03T20:33:34.480Z,68.07
2024-03-03T20:35:36.301Z,68.00
2024-03-03T20:37:38.151Z,68.20
2024-03-03T20:39:40.113Z,68.94
2024-03-03T20:41:44.073Z,68.23
2024-03-03T20:43:48.145Z,68.26
2024-03-03T20:45:51.281Z,69.08
2024-03-03T20:47:53.318Z,69.50
2024-03-03T20:49:55.099Z,69.34
2024-03-03T20:51:56.889Z,69.09
2024-03-03T20:53:59.102Z,69.31
2024-03-03T20:56:01.087Z,69.10
2024-03-03T20:58:03.438Z,69.07
2024-03-03T21:00:09.875Z,69.54
2024-03-03T21:02:13.386Z,69.17
2024-03-03T21:04:16.525Z,69.16
2024-03-03T21:06:19.021Z,69.47
2024-03-03T21:08:21.461Z,69.35
2024-03-03T21:10:23.461Z,69.30
2024-03-03T21:12:25.852Z,69.19
2024-03-03T21:14:28.051Z,69.31
2024-03-03T21:16:30.178Z,69.50
2024-03-03T21:18:32.082Z,69.29
2024-03-03T21:20:33.893Z,68.89
2024-03-03T21:22:36.140Z,68.95
2024-03-03T21:24:38.825Z,68.69
2024-03-03T21:26:45.455Z,68.92
2024-03-03T21:28:49.359Z,68.96
2024-03-03T21:30:51.620Z,68.11
2024-03-03T21:32:53.443Z,68.32
2024-03-03T21:34:55.335Z,68.41
2024-03-03T21:36:58.103Z,68.34
2024-03-03T21:39:00.003Z,69.18
2024-03-03T21:41:03.675Z,69.05
2024-03-03T21:43:13.062Z,68.70
2024-03-03T21:45:15.250Z,68.57
2024-03-03T21:47:18.883Z,68.99
2024-03-03T21:49:20.848Z,69.11
2024-03-03T21:51:22.744Z,69.22
2024-03-03T21:53:24.558Z,69.29
2024-03-03T21:55:26.576Z,68.57
2024-03-03T21:57:28.770Z,69.36
2024-03-03T21:59:30.490Z,69.63
2024-03-03T22:01:32.290Z,70.86
2024-03-03T22:03:34.149Z,72.12
2024-03-03T22:05:36.244Z,73.09
2024-03-03T22:07:38.148Z,72.85
2024-03-03T22:09:40.955Z,72.78
2024-03-03T22:11:42.872Z,72.17
2024-03-03T22:13:44.785Z,71.49
2024-03-03T22:15:46.685Z,71.06
2024-03-03T22:17:48.451Z,70.99
2024-03-03T22:19:50.219Z,70.76
2024-03-03T22:21:52.191Z,69.88
2024-03-03T22:23:54.191Z,69.46
2024-03-03T22:25:58.551Z,69.02
2024-03-03T22:28:00.440Z,69.06
2024-03-03T22:30:02.261Z,69.04
2024-03-03T22:32:04.920Z,68.95
2024-03-03T22:34:07.246Z,68.75
2024-03-03T22:36:09.598Z,68.72
2024-03-03T22:38:11.692Z,68.19
2024-03-03T22:40:15.987Z,68.00
2024-03-03T22:42:17.844Z,68.30
2024-03-03T22:44:19.792Z,68.20
2024-03-03T22:46:23.254Z,67.59
2024-03-03T22:48:26.785Z,68.02
2024-03-03T22:50:30.661Z,68.23
2024-03-03T22:52:32.497Z,67.75
2024-03-03T22:54:34.377Z,67.83
2024-03-03T22:56:36.232Z,67.94
2024-03-03T22:58:38.187Z,68.19
2024-03-03T23:00:41.480Z,68.13
2024-03-03T23:02:43.357Z,67.51
2024-03-03T23:04:48.735Z,68.14
2024-03-03T23:06:51.597Z,67.56
2024-03-03T23:08:53.566Z,68.56
2024-03-03T23:10:55.719Z,68.35
2024-03-03T23:12:57.504Z,68.46
2024-03-03T23:14:59.437Z,68.25
2024-03-03T23:17:01.205Z,68.79
2024-03-03T23:19:03.054Z,68.56
2024-03-03T23:21:05.243Z,68.18
2024-03-03T23:23:06.983Z,68.18
2024-03-03T23:25:09.096Z,67.70
2024-03-03T23:27:10.965Z,68.23
2024-03-03T23:29:13.050Z,67.69
2024-03-03T23:31:15.627Z,68.39
2024-03-03T23:33:17.531Z,68.39
2024-03-03T23:35:19.448Z,68.31
2024-03-03T23:37:21.546Z,68.09
2024-03-03T23:39:23.535Z,68.24
2024-03-03T23:41:25.440Z,68.15
2024-03-03T23:43:29.221Z,68.17
2024-03-03T23:45:30.977Z,68.48
2024-03-03T23:47:32.797Z,69.09
2024-03-03T23:49:34.929Z,68.62
2024-03-03T23:51:37.242Z,68.47
2024-03-03T23:53:38.996Z,68.41
2024-03-03T23:55:40.878Z,68.29
2024-03-03T23:57:42.903Z,67.92
2024-03-03T23:59:45.138Z,67.82
